Flight Track Log - Related Links

Times and Time Zones

All times are in EDT time to prevent confusion due to time zone crossing. See the EGF3650 flight status page for this flight to view local times or setup timezone preferences in your user account.

Time Position Orientation Groundspeed Altitude Reporting Facility
EDT Latitude Longitude Course Direction KTS MPH feet Rate Location/Type
Sat 11:24:48 PM 33.9306 -118.4525 90° East 199 229 2,400  Level Los Angeles Center
Sat 11:25:50 PM 33.8858 -118.5144 229° Southwest 249 287 4,400 1,268 Climbing Los Angeles Center
Sat 11:26:00 PM 33.7465 -118.5956 134° Southeast  Level FlightAware Approximate
Sat 11:26:51 PM 33.8125 -118.5217 185° South 273 314 5,000  Level Los Angeles Center
Sat 11:27:00 PM 33.6750 -118.4666 101° East  Level FlightAware Approximate
Sat 11:27:52 PM 33.7350 -118.5217 180° South 281 323 6,900  Level Los Angeles Center
Sat 11:28:00 PM 33.6333 -118.3164 90° East  Level FlightAware Approximate
Sat 11:28:54 PM 33.6811 -118.4547 134° Southeast 306 352 9,300  Level Los Angeles Center
Sat 11:29:00 PM 33.6333 -118.1560 90° East  Level FlightAware Approximate
Sat 11:29:55 PM 33.6447 -118.3331 110° East 328 377 10,900  Level Los Angeles Center
Sat 11:30:00 PM 33.6334 -118.0057 90° East  Level FlightAware Approximate
Sat 11:30:56 PM 33.6442 -118.2097 90° East 374 430 12,000  Level Los Angeles Center
Sat 11:31:58 PM 33.6439 -118.0772 90° East 395 455 13,600 1,512 Climbing Los Angeles Center
Sat 11:32:59 PM 33.6433 -117.9381 90° East 415 478 15,100 1,426 Climbing Los Angeles Center
Sat 11:34:00 PM 33.6425 -117.7967 90° East 424 488 16,500 1,415 Climbing Los Angeles Center
Sat 11:35:02 PM 33.6422 -117.6536 90° East 431 496 18,000 1,463 Climbing Los Angeles Center
Sat 11:36:03 PM 33.6414 -117.4789 90° East 438 504 19,500 1,377 Climbing Los Angeles Center
Sat 11:37:04 PM 33.6406 -117.3311 90° East 444 511 20,800 1,220 Climbing Los Angeles Center
Sat 11:38:06 PM 33.6403 -117.1803 90° East 451 519 22,000 1,073 Climbing Los Angeles Center
Sat 11:39:07 PM 33.6383 -117.0267 91° East 461 531 23,000 934 Climbing Los Angeles Center
Sat 11:40:08 PM 33.6369 -116.8697 91° East 469 540 23,900 829 Climbing Los Angeles Center
Sat 11:41:10 PM 33.6356 -116.6978 91° East 477 549 24,700 780 Climbing Los Angeles Center
Sat 11:42:11 PM 33.6339 -116.5333 91° East 488 562 25,500 787 Climbing Los Angeles Center
Sat 11:43:12 PM 33.6314 -116.3669 91° East 497 572 26,300 844 Climbing Los Angeles Center
Sat 11:44:26 PM 33.6272 -116.1667 91° East 500 575 27,400 933 Climbing Los Angeles Center
Sat 11:45:27 PM 33.6242 -115.9986 91° East 503 579 28,400 927 Climbing Los Angeles Center
Sat 11:46:29 PM 33.6211 -115.8336 91° East 494 568 29,300 829 Climbing Los Angeles Center
Sat 11:47:30 PM 33.6169 -115.6669 92° East 497 572 30,100 787 Climbing Los Angeles Center
Sat 11:48:31 PM 33.6014 -115.4997 96° East 508 585 30,900 738 Climbing Los Angeles Center
Sat 11:49:32 PM 33.5764 -115.3347 100° East 502 578 31,600 634 Climbing Los Angeles Center
Sat 11:50:34 PM 33.5497 -115.1689 101° East 506 582 32,200 585 Climbing Los Angeles Center
Sat 11:51:35 PM 33.5181 -114.9675 101° East 511 588 32,800 541 Climbing Los Angeles Center
Sat 11:52:36 PM 33.4919 -114.7983 100° East 516 594 33,300 488 Climbing Los Angeles Center
Sat 11:53:38 PM 33.4644 -114.6311 101° East 513 590 33,800 424 Climbing Los Angeles Center
Sat 11:54:15 PM 33.4542 -114.5481 98° East 513 590 34,000 429 Climbing Albuquerque Center
Sat 11:55:16 PM 33.4272 -114.3803 101° East 513 590 34,500 496 Climbing Albuquerque Center
Sat 11:56:16 PM 33.3994 -114.2131 101° East 512 589 35,000 496 Climbing Albuquerque Center
Sat 11:57:17 PM 33.3719 -114.0450 101° East 515 593 35,500 595 Climbing Albuquerque Center
Sat 11:58:17 PM 33.3383 -113.8453 101° East 512 589 36,200 545 Climbing Albuquerque Center
Sat 11:59:18 PM 33.3094 -113.6778 102° East 514 592 36,600 393 Climbing Albuquerque Center
Sun 12:00:19 AM 33.2808 -113.5133 102° East 509 586 37,000 198 Climbing Albuquerque Center
Sun 12:01:19 AM 33.2528 -113.3467 101° East 510 587 37,000  Level Albuquerque Center
Sun 12:02:20 AM 33.2236 -113.1775 102° East 514 592 37,000  Level Albuquerque Center
Sun 12:03:20 AM 33.1947 -113.0094 102° East 515 593 37,000  Level Albuquerque Center
Sun 12:04:21 AM 33.1653 -112.8433 102° East 513 590 37,000  Level Albuquerque Center
Sun 12:05:21 AM 33.1353 -112.6761 102° East 512 589 37,000  Level Albuquerque Center
Sun 12:06:22 AM 33.1044 -112.5086 102° East 513 590 37,000  Level Albuquerque Center
Sun 12:07:22 AM 33.0742 -112.3417 102° East 514 592 37,000  Level Albuquerque Center
Sun 12:08:23 AM 33.0456 -112.1811 102° East 513 590 37,000  Level Albuquerque Center
Sun 12:09:23 AM 33.0158 -112.0164 102° East 513 590 37,000  Level Albuquerque Center
Sun 12:10:24 AM 32.9850 -111.8517 103° East 513 590 37,000  Level Albuquerque Center
Sun 12:11:24 AM 32.9550 -111.6875 102° East 511 588 37,000  Level Albuquerque Center
Sun 12:12:25 AM 32.9247 -111.5242 102° East 508 585 37,000  Level Albuquerque Center
Sun 12:13:25 AM 32.8936 -111.3597 103° East 511 588 37,000  Level Albuquerque Center
Sun 12:14:26 AM 32.8631 -111.1953 102° East 511 588 37,000  Level Albuquerque Center
Sun 12:15:26 AM 32.8322 -111.0306 103° East 512 589 37,000  Level Albuquerque Center
Sun 12:16:27 AM 32.7983 -110.8683 104° East 511 588 37,000  Level Albuquerque Center
Sun 12:17:27 AM 32.7675 -110.7031 102° East 514 592 37,000  Level Albuquerque Center
Sun 12:18:28 AM 32.7283 -110.5106 104° East 513 590 37,000  Level Albuquerque Center
Sun 12:19:28 AM 32.6972 -110.3475 103° East 513 590 37,000  Level Albuquerque Center
Sun 12:20:29 AM 32.6642 -110.1847 104° East 513 590 37,000  Level Albuquerque Center
Sun 12:21:29 AM 32.6308 -110.0208 104° East 515 593 37,000  Level Albuquerque Center
Sun 12:22:30 AM 32.5978 -109.8583 104° East 515 593 37,000  Level Albuquerque Center
Sun 12:23:30 AM 32.5647 -109.6958 104° East 515 593 37,000  Level Albuquerque Center
Sun 12:24:30 AM 32.5289 -109.5283 104° East 526 605 37,000  Level Albuquerque Center
Sun 12:25:31 AM 32.4953 -109.3636 104° East 524 603 37,000  Level Albuquerque Center
Sun 12:26:31 AM 32.4608 -109.1983 104° East 525 604 37,000  Level Albuquerque Center
Sun 12:27:32 AM 32.4197 -109.0008 104° East 525 604 37,000  Level Albuquerque Center
Sun 12:28:32 AM 32.3839 -108.8353 104° East 526 605 37,000  Level Albuquerque Center
Sun 12:29:33 AM 32.3492 -108.6697 104° East 527 606 37,000  Level Albuquerque Center
Sun 12:30:33 AM 32.3147 -108.5061 104° East 523 602 37,000  Level Albuquerque Center
Sun 12:31:34 AM 32.2811 -108.3517 104° East 519 597 37,000  Level Albuquerque Center
Sun 12:32:34 AM 32.2464 -108.1878 104° East 518 596 37,000 -50 Level Albuquerque Center
Sun 12:33:34 AM 32.2097 -108.0231 105° East 519 597 36,900 -50 Descending Albuquerque Center
Sun 12:34:35 AM 32.1747 -107.8600 104° East 518 596 36,900 -446 Level Albuquerque Center
Sun 12:35:35 AM 32.1378 -107.6953 105° East 522 601 36,000 -950 Descending Albuquerque Center
Sun 12:36:35 AM 32.1017 -107.5294 104° East 525 604 35,000 -1,091 Descending Albuquerque Center
Sun 12:37:36 AM 32.0575 -107.3331 105° East 524 603 33,800 -1,041 Descending Albuquerque Center
Sun 12:38:36 AM 32.0214 -107.1681 104° East 526 605 32,900 -397 Descending Albuquerque Center
Sun 12:39:37 AM 31.9847 -107.0061 105° East 520 598 33,000  Climbing Albuquerque Center
Sun 12:40:37 AM 31.9467 -106.8428 105° East 521 600 32,900  Descending Albuquerque Center
Sun 12:41:37 AM 31.9081 -106.6783 105° East 525 604 33,000 50 Climbing Albuquerque Center
Sun 12:42:38 AM 31.8714 -106.5197 105° East 529 609 33,000  Level Albuquerque Center
Sun 12:43:38 AM 31.8339 -106.3533 105° East 528 608 33,000  Level Albuquerque Center
Sun 12:44:39 AM 31.7931 -106.1894 106° East 524 603 33,000  Level Albuquerque Center
Sun 12:45:39 AM 31.7517 -106.0244 106° East 526 605 33,000  Level Albuquerque Center
Sun 12:46:39 AM 31.7103 -105.8603 106° East 525 604 33,000  Level Albuquerque Center
Sun 12:47:40 AM 31.6683 -105.6967 107° East 524 603 33,000  Level Albuquerque Center
Sun 12:48:40 AM 31.6269 -105.5333 107° East 522 601 33,000  Level Albuquerque Center
Sun 12:49:41 AM 31.5867 -105.3697 106° East 522 601 33,000  Level Albuquerque Center
Sun 12:50:41 AM 31.5444 -105.2067 107° East 520 598 33,000  Level Albuquerque Center
Sun 12:51:41 AM 31.5017 -105.0375 106° East 526 605 33,000  Level Albuquerque Center
Sun 12:52:42 AM 31.4600 -104.8733 107° East 530 610 33,000  Level Albuquerque Center
Sun 12:53:42 AM 31.4175 -104.7075 107° East 530 610 33,000  Level Albuquerque Center
Sun 12:54:43 AM 31.3747 -104.5442 107° East 527 606 33,000 -50 Level Albuquerque Center
Sun 12:55:43 AM 31.3333 -104.3836 107° East 519 597 32,900  Descending Albuquerque Center
Sun 12:56:43 AM 31.2908 -104.2222 107° East 518 596 33,000 50 Climbing Albuquerque Center
Sun 12:57:44 AM 31.2467 -104.0597 108° East 521 600 33,000  Level Albuquerque Center
Sun 12:58:44 AM 31.2033 -103.8964 107° East 525 604 33,000  Level Albuquerque Center
Sun 12:59:44 AM 31.1522 -103.7075 108° East 520 598 33,000  Level Albuquerque Center
Sun 01:00:45 AM 31.1072 -103.5475 108° East 520 598 33,000  Level Albuquerque Center
Sun 01:01:45 AM 31.0631 -103.3886 108° East 517 595 33,000  Level Albuquerque Center
Sun 01:02:46 AM 31.0197 -103.2289 108° East 518 596 33,000  Level Albuquerque Center
Sun 01:03:46 AM 30.9894 -103.0697 102° East 510 587 33,000 -50 Level Albuquerque Center
Sun 01:04:46 AM 30.9733 -102.9078 97° East 506 582 32,900 -50 Descending Albuquerque Center
Sun 01:05:47 AM 30.9558 -102.7458 97° East 507 583 32,900 -496 Level Albuquerque Center
Sun 01:06:47 AM 30.9375 -102.5853 98° East 506 582 31,900 -950 Descending Albuquerque Center
Sun 01:07:47 AM 30.9197 -102.4250 97° East 505 581 31,000 -446 Descending Albuquerque Center
Sun 01:08:48 AM 30.9025 -102.2656 97° East 504 580 31,000  Level Albuquerque Center
Sun 01:09:48 AM 30.8847 -102.1081 97° East 501 577 31,000  Level Albuquerque Center
Sun 01:10:49 AM 30.8672 -101.9506 97° East 498 573 31,000  Level Albuquerque Center
Sun 01:11:49 AM 30.8486 -101.7936 98° East 496 571 31,000 -45 Level Albuquerque Center
Sun 01:13:01 AM 30.8264 -101.6042 98° East 496 571 30,900  Descending Houston Center
Sun 01:14:01 AM 30.8081 -101.4464 98° East 495 570 31,000 50 Climbing Houston Center
Sun 01:15:01 AM 30.7908 -101.2872 97° East 495 570 31,000  Level Houston Center
Sun 01:16:10 AM 30.7675 -101.0992 98° East 493 567 31,000 -47 Level Houston Center
Sun 01:17:10 AM 30.7483 -100.9417 98° East 492 566 30,900  Descending Houston Center
Sun 01:18:10 AM 30.7292 -100.7856 98° East 488 562 31,000 50 Climbing Houston Center
Sun 01:19:10 AM 30.7100 -100.6278 98° East 490 564 31,000  Level Houston Center
Sun 01:20:11 AM 30.6908 -100.4678 98° East 498 573 31,000  Level Houston Center
Sun 01:21:11 AM 30.6692 -100.3075 99° East 501 577 31,000  Level Houston Center
Sun 01:22:11 AM 30.6483 -100.1475 99° East 499 574 31,000  Level Houston Center
Sun 01:23:11 AM 30.6286 -99.9836 98° East 507 583 31,000  Level Houston Center
Sun 01:24:11 AM 30.6072 -99.8200 99° East 510 587 31,000  Level Houston Center
Sun 01:25:11 AM 30.5856 -99.6547 99° East 514 592 31,000  Level Houston Center
Sun 01:26:12 AM 30.5619 -99.4881 99° East 520 598 31,000  Level Houston Center
Sun 01:27:12 AM 30.5397 -99.3203 99° East 524 603 31,000  Level Houston Center
Sun 01:28:12 AM 30.5164 -99.1539 99° East 524 603 31,000  Level Houston Center
Sun 01:29:12 AM 30.4931 -98.9922 99° East 525 604 31,000  Level Houston Center
Sun 01:30:12 AM 30.4708 -98.8239 99° East 524 603 31,000  Level Houston Center
Sun 01:31:13 AM 30.4458 -98.6547 100° East 529 609 31,000  Level Houston Center
Sun 01:32:13 AM 30.4222 -98.4886 99° East 523 602 31,000  Level Houston Center
Sun 01:33:13 AM 30.3986 -98.3219 99° East 523 602 31,000  Level Houston Center
Sun 01:34:13 AM 30.3750 -98.1558 99° East 520 598 31,000  Level Houston Center
Sun 01:35:13 AM 30.3517 -97.9900 99° East 519 597 31,000  Level Houston Center
Sun 01:36:13 AM 30.3261 -97.8247 100° East 519 597 31,000 -1,050 Level Houston Center
Sun 01:37:13 AM 30.3028 -97.6631 99° East 511 588 28,900 -2,132 Descending Houston Center
Sun 01:38:14 AM 30.2806 -97.5111 100° East 483 556 26,700 -2,182 Descending Houston Center
Sun 01:39:14 AM 30.2572 -97.3619 100° East 473 544 24,500 -2,150 Descending Houston Center
Sun 01:40:14 AM 30.2342 -97.2119 100° East 471 542 22,400 -2,050 Descending Houston Center
Sun 01:41:14 AM 30.2117 -97.0647 100° East 464 534 20,400 -2,000 Descending Houston Center
Sun 01:41:50 AM 30.1997 -96.9792 99° East 456 525 19,200 -2,111 Descending Houston Center
Sun 01:42:08 AM 30.1919 -96.9339 101° East 448 516 18,500 -2,051 Descending Houston Center
Sun 01:43:09 AM 30.1711 -96.8036 100° East 436 502 16,500 -1,736 Descending Houston Center
Sun 01:44:09 AM 30.1489 -96.6586 100° East 432 497 15,000 -1,240 Descending Houston Center
Sun 01:45:10 AM 30.1269 -96.5186 100° East 429 494 14,000 -492 Descending Houston Center
Sun 01:46:11 AM 30.1325 -96.3828 87° East 418 481 14,000  Level Houston Center
Sun 01:47:11 AM 30.1447 -96.2536 84° East 408 470 14,000  Level Houston Center
Sun 01:48:12 AM 30.1542 -96.1197 85° East 407 468 14,000  Level Houston Center
Sun 01:49:13 AM 30.1639 -95.9858 85° East 410 472 14,000  Level Houston Center
Sun 01:50:13 AM 30.1736 -95.8567 85° East 410 472 14,000 -50 Level Houston Center
Sun 01:51:14 AM 30.1806 -95.7231 87° East 411 473 13,900 -545 Descending Houston Center
Sun 01:52:14 AM 30.1711 -95.5936 95° East 402 463 12,900 -1,289 Descending Houston Center
Sun 01:53:15 AM 30.1631 -95.4786 95° East 347 399 11,300 -1,339 Descending Houston Center
Sun 01:54:15 AM 30.1600 -95.3753 92° East 306 352 10,200 -645 Descending Houston Center
Sun 01:55:16 AM 30.1578 -95.2906 92° East 297 342 10,000 -347 Descending Houston Center
Sun 01:56:16 AM 30.1569 -95.2081 91° East 265 305 9,500 -1,200 Descending Houston Center
Sun 01:57:16 AM 30.1569 -95.1275 90° East 256 295 7,600 -1,850 Descending Houston Center
Sun 01:58:16 AM 30.1533 -95.0500 93° East 246 283 5,800 -1,810 Descending Houston Center
Sun 01:59:12 AM 30.0958 -95.0447 175° South 207 238 4,100 -1,436 Descending Houston Center
Sun 02:00:13 AM 30.0489 -95.0819 214° Southwest 200 230 3,000 -541 Descending Houston Center
Sun 02:01:14 AM 30.0064 -95.1233 220° Southwest 203 234 3,000  Level Houston Center

Login

Don't have an account? Register now (free) for customized features, flight alerts, and more!